QTR5523 LPPT-OMDB
Flight info
| Callsign | QTR5523 |
|---|---|
| Flight time | N/A |
| Altitude | 36000 |
| Route | ORVED DCT RODAP DCT RAKOD DCT UREDI DCT NVS/N0462F350 DCT NANDO/N0465F360 T257 MABUX M871 LASPO Z224 NINES/N0462F350 DCT OLMIR DCT XARON DCT GENIO DCT LUXUR UM134 PAGRE/N0458F370 UM134 ANB UG6 DIMAO UL874 OMENI DCT BONAR M980 LOSUL M855 MMA N705 BOPIX N710 TAKRI M720 FYM M872 BDB Y214 KODIS/N0465F390 Y214 RAPMA DCT KUVSO DCT KATIT DCT PEKEM M628 RIGIL G783 ELUDA/N0469F350 G783 ASPED Q308 KIPOK Q568 IMPED |
| Aircraft | A346/H-SDE2E3FGHIJ3J4J5M1RWXY/LB1D1 |
Departure
| Time | 2026-05-06 18:27 |
|---|---|
| Airport | Lisbon Humberto Delgado Airport (LPPT) |
Arrival
| Time | N/A |
|---|---|
| Airport | Dubai International Airport (OMDB) |
| Time | Latitude | Longitude | Altitude | Speed | Heading |
|---|---|---|---|---|---|
| 2026-05-06 17:44 | 38.77485 | -9.13191 | 346 ft | 0 kts | 78° |
| 2026-05-06 18:14 | 38.77482 | -9.13208 | 347 ft | 3 kts | 78° |
| 2026-05-06 18:15 | 38.77477 | -9.13241 | 345 ft | 4 kts | 82° |
| 2026-05-06 18:15 | 38.77477 | -9.13273 | 346 ft | 4 kts | 101° |
| 2026-05-06 18:15 | 38.77482 | -9.13292 | 346 ft | 4 kts | 141° |
| 2026-05-06 18:15 | 38.77495 | -9.13297 | 354 ft | 4 kts | 168° |
| 2026-05-06 18:16 | 38.77522 | -9.13304 | 346 ft | 4 kts | 168° |
| 2026-05-06 18:16 | 38.77531 | -9.13306 | 346 ft | 0 kts | 168° |
| 2026-05-06 18:19 | 38.77525 | -9.13304 | 346 ft | 2 kts | 168° |
| 2026-05-06 18:20 | 38.77500 | -9.13298 | 346 ft | 5 kts | 168° |
| 2026-05-06 18:20 | 38.77457 | -9.13287 | 351 ft | 7 kts | 168° |
| 2026-05-06 18:20 | 38.77400 | -9.13273 | 355 ft | 9 kts | 172° |
| 2026-05-06 18:20 | 38.77342 | -9.13295 | 354 ft | 9 kts | 229° |
| 2026-05-06 18:21 | 38.77318 | -9.13369 | 352 ft | 9 kts | 255° |
| 2026-05-06 18:21 | 38.77306 | -9.13440 | 360 ft | 7 kts | 258° |
| 2026-05-06 18:21 | 38.77297 | -9.13498 | 363 ft | 6 kts | 258° |
| 2026-05-06 18:21 | 38.77289 | -9.13542 | 356 ft | 4 kts | 258° |
| 2026-05-06 18:22 | 38.77281 | -9.13589 | 363 ft | 7 kts | 258° |
| 2026-05-06 18:22 | 38.77270 | -9.13661 | 364 ft | 9 kts | 258° |
| 2026-05-06 18:22 | 38.77255 | -9.13748 | 364 ft | 11 kts | 258° |
| 2026-05-06 18:22 | 38.77225 | -9.13835 | 362 ft | 11 kts | 227° |
| 2026-05-06 18:23 | 38.77152 | -9.13888 | 361 ft | 14 kts | 203° |
| 2026-05-06 18:23 | 38.77056 | -9.13939 | 362 ft | 16 kts | 202° |
| 2026-05-06 18:23 | 38.76938 | -9.14003 | 365 ft | 21 kts | 202° |
| 2026-05-06 18:23 | 38.76804 | -9.14074 | 352 ft | 19 kts | 202° |
| 2026-05-06 18:24 | 38.76704 | -9.14127 | 350 ft | 16 kts | 202° |
| 2026-05-06 18:24 | 38.76629 | -9.14168 | 359 ft | 12 kts | 207° |
| 2026-05-06 18:24 | 38.76604 | -9.14258 | 354 ft | 13 kts | 280° |
| 2026-05-06 18:24 | 38.76657 | -9.14359 | 345 ft | 11 kts | 349° |
| 2026-05-06 18:25 | 38.76732 | -9.14340 | 355 ft | 0 kts | 21° |
| 2026-05-06 18:26 | 38.76755 | -9.14328 | 348 ft | 20 kts | 21° |
| 2026-05-06 18:26 | 38.77074 | -9.14159 | 364 ft | 78 kts | 22° |
| 2026-05-06 18:26 | 38.77740 | -9.13802 | 375 ft | 129 kts | 22° |
| 2026-05-06 18:27 | 38.78713 | -9.13280 | 373 ft | 173 kts | 23° |
| 2026-05-06 18:27 | 38.79921 | -9.12620 | 483 ft | 199 kts | 22° |
| 2026-05-06 18:27 | 38.81166 | -9.11842 | 1108 ft | 197 kts | 29° |
| 2026-05-06 18:27 | 38.82321 | -9.10908 | 1797 ft | 195 kts | 31° |
| 2026-05-06 18:28 | 38.83080 | -9.10285 | 2203 ft | 196 kts | 31° |
| 2026-05-06 18:28 | 38.84259 | -9.09339 | 2630 ft | 205 kts | 29° |
| 2026-05-06 18:28 | 38.85540 | -9.08402 | 2929 ft | 220 kts | 27° |
| 2026-05-06 18:28 | 38.86941 | -9.07435 | 3222 ft | 238 kts | 27° |
| 2026-05-06 18:29 | 38.88298 | -9.06101 | 3528 ft | 258 kts | 54° |
| 2026-05-06 18:29 | 38.89147 | -9.04015 | 4063 ft | 267 kts | 66° |
| 2026-05-06 18:29 | 38.89849 | -9.01788 | 4797 ft | 269 kts | 67° |
| 2026-05-06 18:29 | 38.90560 | -8.99553 | 5549 ft | 271 kts | 66° |
| 2026-05-06 18:30 | 38.91305 | -8.97314 | 6290 ft | 273 kts | 65° |
| 2026-05-06 18:30 | 38.92078 | -8.95071 | 7040 ft | 276 kts | 65° |
| 2026-05-06 18:30 | 38.92875 | -8.92810 | 7765 ft | 279 kts | 65° |
| 2026-05-06 18:30 | 38.93678 | -8.90561 | 8500 ft | 282 kts | 65° |
| 2026-05-06 18:31 | 38.94507 | -8.88257 | 9231 ft | 285 kts | 65° |
| 2026-05-06 18:31 | 38.95348 | -8.85928 | 9974 ft | 289 kts | 65° |
| 2026-05-06 18:31 | 38.96208 | -8.83550 | 10564 ft | 299 kts | 65° |
| 2026-05-06 18:31 | 38.97109 | -8.81059 | 10922 ft | 316 kts | 65° |
| 2026-05-06 18:32 | 38.98062 | -8.78428 | 11249 ft | 333 kts | 65° |
| 2026-05-06 18:32 | 38.99068 | -8.75650 | 11568 ft | 351 kts | 65° |
| 2026-05-06 18:32 | 39.00124 | -8.72733 | 11873 ft | 368 kts | 65° |
| 2026-05-06 18:32 | 39.01230 | -8.69679 | 12216 ft | 383 kts | 65° |
| 2026-05-06 18:33 | 39.02367 | -8.66533 | 12812 ft | 390 kts | 65° |
| 2026-05-06 18:33 | 39.03515 | -8.63354 | 13539 ft | 393 kts | 65° |
| 2026-05-06 18:33 | 39.04670 | -8.60150 | 14225 ft | 397 kts | 65° |
| 2026-05-06 18:33 | 39.05838 | -8.56908 | 14864 ft | 401 kts | 65° |
| 2026-05-06 18:34 | 39.07017 | -8.53630 | 15511 ft | 405 kts | 65° |
| 2026-05-06 18:34 | 39.08208 | -8.50318 | 16139 ft | 409 kts | 65° |
| 2026-05-06 18:34 | 39.09409 | -8.46972 | 16753 ft | 413 kts | 65° |
| 2026-05-06 18:34 | 39.10621 | -8.43594 | 17344 ft | 417 kts | 65° |
| 2026-05-06 18:35 | 39.11843 | -8.40180 | 17936 ft | 421 kts | 65° |
| 2026-05-06 18:35 | 39.13075 | -8.36739 | 18508 ft | 425 kts | 65° |
| 2026-05-06 18:35 | 39.14316 | -8.33264 | 19058 ft | 428 kts | 65° |
| 2026-05-06 18:35 | 39.15568 | -8.29756 | 19613 ft | 432 kts | 65° |
| 2026-05-06 18:36 | 39.16829 | -8.26219 | 20139 ft | 436 kts | 65° |
| 2026-05-06 18:36 | 39.18100 | -8.22648 | 20676 ft | 439 kts | 65° |
| 2026-05-06 18:36 | 39.19379 | -8.19052 | 21191 ft | 443 kts | 65° |
| 2026-05-06 18:36 | 39.20651 | -8.15470 | 21682 ft | 446 kts | 65° |
| 2026-05-06 18:37 | 39.21965 | -8.11765 | 22184 ft | 450 kts | 66° |
| 2026-05-06 18:37 | 39.23271 | -8.08080 | 22663 ft | 453 kts | 66° |
| 2026-05-06 18:37 | 39.24570 | -8.04407 | 23129 ft | 456 kts | 66° |
| 2026-05-06 18:37 | 39.25893 | -8.00665 | 23582 ft | 460 kts | 66° |
| 2026-05-06 18:38 | 39.27222 | -7.96900 | 24033 ft | 463 kts | 66° |
| 2026-05-06 18:38 | 39.28562 | -7.93098 | 24462 ft | 467 kts | 66° |
| 2026-05-06 18:38 | 39.29911 | -7.89263 | 24885 ft | 470 kts | 66° |
| 2026-05-06 18:38 | 39.31267 | -7.85405 | 25302 ft | 473 kts | 66° |
| 2026-05-06 18:39 | 39.32632 | -7.81517 | 25710 ft | 476 kts | 66° |
| 2026-05-06 18:39 | 39.34004 | -7.77601 | 26115 ft | 479 kts | 66° |
| 2026-05-06 18:39 | 39.35382 | -7.73662 | 26499 ft | 482 kts | 66° |
| 2026-05-06 18:40 | 39.38199 | -7.65719 | 27254 ft | 488 kts | 64° |
| 2026-05-06 18:40 | 39.39780 | -7.61805 | 27677 ft | 490 kts | 62° |
| 2026-05-06 18:40 | 39.41418 | -7.57948 | 28221 ft | 488 kts | 61° |
| 2026-05-06 18:40 | 39.43062 | -7.54112 | 28758 ft | 486 kts | 61° |
| 2026-05-06 18:41 | 39.44701 | -7.50289 | 29274 ft | 485 kts | 61° |
| 2026-05-06 18:41 | 39.46337 | -7.46465 | 29762 ft | 485 kts | 61° |
| 2026-05-06 18:41 | 39.47969 | -7.42642 | 30220 ft | 484 kts | 61° |
| 2026-05-06 18:41 | 39.49596 | -7.38820 | 30684 ft | 484 kts | 61° |
| 2026-05-06 18:42 | 39.51220 | -7.35000 | 31126 ft | 483 kts | 61° |
| 2026-05-06 18:42 | 39.52839 | -7.31183 | 31548 ft | 483 kts | 61° |
| 2026-05-06 18:42 | 39.54458 | -7.27363 | 31962 ft | 483 kts | 61° |
| 2026-05-06 18:42 | 39.56073 | -7.23547 | 32375 ft | 482 kts | 61° |
| 2026-05-06 18:43 | 39.57684 | -7.19736 | 32769 ft | 482 kts | 61° |
| 2026-05-06 18:43 | 39.59296 | -7.15916 | 33169 ft | 481 kts | 61° |
| 2026-05-06 18:43 | 39.60905 | -7.12097 | 33539 ft | 481 kts | 61° |
| 2026-05-06 18:43 | 39.62482 | -7.08338 | 33901 ft | 481 kts | 62° |
| 2026-05-06 18:44 | 39.63967 | -7.04444 | 34256 ft | 480 kts | 65° |
| 2026-05-06 18:44 | 39.65344 | -7.00486 | 34549 ft | 481 kts | 66° |
| 2026-05-06 18:44 | 39.66697 | -6.96511 | 34815 ft | 483 kts | 66° |
| 2026-05-06 18:44 | 39.68054 | -6.92506 | 35065 ft | 484 kts | 66° |
| 2026-05-06 18:45 | 39.69413 | -6.88496 | 35322 ft | 485 kts | 66° |
| 2026-05-06 18:45 | 39.70775 | -6.84477 | 35573 ft | 486 kts | 66° |
| 2026-05-06 18:45 | 39.72141 | -6.80446 | 35817 ft | 487 kts | 66° |
| 2026-05-06 18:46 | 39.74881 | -6.72353 | 35896 ft | 489 kts | 66° |
| 2026-05-06 18:46 | 39.77619 | -6.64244 | 35899 ft | 489 kts | 66° |
| 2026-05-06 18:47 | 39.80353 | -6.56123 | 35901 ft | 489 kts | 66° |
| 2026-05-06 18:47 | 39.83075 | -6.48007 | 35908 ft | 489 kts | 66° |
| 2026-05-06 18:48 | 39.85746 | -6.39855 | 35907 ft | 489 kts | 69° |
| 2026-05-06 18:48 | 39.87951 | -6.31473 | 35909 ft | 489 kts | 72° |
| 2026-05-06 18:49 | 39.90028 | -6.23030 | 35908 ft | 489 kts | 72° |
| 2026-05-06 18:49 | 39.92099 | -6.14583 | 35908 ft | 489 kts | 72° |
| 2026-05-06 18:50 | 39.94156 | -6.06190 | 35908 ft | 489 kts | 72° |
| 2026-05-06 18:50 | 39.96221 | -5.97743 | 35915 ft | 489 kts | 72° |
| 2026-05-06 18:51 | 39.98295 | -5.89228 | 35916 ft | 489 kts | 72° |
| 2026-05-06 18:51 | 40.00337 | -5.80820 | 35917 ft | 489 kts | 72° |
| 2026-05-06 18:52 | 40.02384 | -5.72358 | 35918 ft | 489 kts | 72° |
| 2026-05-06 18:52 | 40.04425 | -5.63892 | 35921 ft | 488 kts | 72° |
| 2026-05-06 18:53 | 40.06459 | -5.55422 | 35918 ft | 488 kts | 72° |
| 2026-05-06 18:53 | 40.08487 | -5.46948 | 35924 ft | 488 kts | 72° |
| 2026-05-06 18:54 | 40.10510 | -5.38461 | 35924 ft | 489 kts | 73° |
| 2026-05-06 18:54 | 40.12527 | -5.29970 | 35926 ft | 489 kts | 73° |
| 2026-05-06 18:55 | 40.14537 | -5.21479 | 35927 ft | 489 kts | 73° |
| 2026-05-06 18:55 | 40.16542 | -5.12977 | 35926 ft | 489 kts | 73° |
| 2026-05-06 18:56 | 40.18542 | -5.04465 | 35926 ft | 489 kts | 73° |
| 2026-05-06 18:56 | 40.20535 | -4.95950 | 35927 ft | 489 kts | 73° |
| 2026-05-06 18:57 | 40.22524 | -4.87419 | 35927 ft | 489 kts | 73° |
| 2026-05-06 18:57 | 40.24506 | -4.78888 | 35926 ft | 490 kts | 73° |
| 2026-05-06 18:58 | 40.26484 | -4.70341 | 35926 ft | 490 kts | 73° |
| 2026-05-06 18:58 | 40.28456 | -4.61787 | 35926 ft | 490 kts | 73° |
| 2026-05-06 18:59 | 40.30423 | -4.53223 | 35926 ft | 490 kts | 73° |
| 2026-05-06 18:59 | 40.32383 | -4.44647 | 35926 ft | 491 kts | 73° |
| 2026-05-06 19:00 | 40.34307 | -4.36048 | 35924 ft | 491 kts | 76° |
| 2026-05-06 19:00 | 40.35428 | -4.27221 | 35927 ft | 490 kts | 86° |
| 2026-05-06 19:01 | 40.35381 | -4.18297 | 35926 ft | 489 kts | 97° |
| 2026-05-06 19:01 | 40.34233 | -4.09584 | 35928 ft | 487 kts | 104° |
| 2026-05-06 19:02 | 40.32685 | -4.00863 | 35927 ft | 487 kts | 105° |
| 2026-05-06 19:02 | 40.31150 | -3.92257 | 35926 ft | 488 kts | 105° |
| 2026-05-06 19:03 | 40.29611 | -3.83582 | 35926 ft | 488 kts | 105° |
| 2026-05-06 19:03 | 40.28070 | -3.74910 | 35926 ft | 488 kts | 105° |
| 2026-05-06 19:04 | 40.26526 | -3.66242 | 35926 ft | 488 kts | 105° |
| 2026-05-06 19:04 | 40.24975 | -3.57580 | 35927 ft | 488 kts | 105° |
| 2026-05-06 19:05 | 40.23418 | -3.48919 | 35926 ft | 488 kts | 105° |
| 2026-05-06 19:05 | 40.21856 | -3.40268 | 35928 ft | 488 kts | 105° |
| 2026-05-06 19:06 | 40.20287 | -3.31625 | 35926 ft | 488 kts | 105° |
| 2026-05-06 19:06 | 40.18712 | -3.22980 | 35926 ft | 488 kts | 105° |
| 2026-05-06 19:07 | 40.17130 | -3.14339 | 35926 ft | 488 kts | 105° |
| 2026-05-06 19:07 | 40.15541 | -3.05699 | 35926 ft | 488 kts | 105° |
| 2026-05-06 19:08 | 40.13945 | -2.97060 | 35926 ft | 489 kts | 105° |
| 2026-05-06 19:08 | 40.12353 | -2.88482 | 35927 ft | 489 kts | 105° |
| 2026-05-06 19:09 | 40.10742 | -2.79840 | 35927 ft | 489 kts | 106° |
| 2026-05-06 19:09 | 40.09122 | -2.71191 | 35931 ft | 489 kts | 106° |
| 2026-05-06 19:10 | 40.07496 | -2.62545 | 35936 ft | 490 kts | 106° |
| 2026-05-06 19:10 | 40.05861 | -2.53895 | 35942 ft | 490 kts | 106° |
| 2026-05-06 19:11 | 40.04219 | -2.45244 | 35944 ft | 490 kts | 106° |
| 2026-05-06 19:11 | 40.02570 | -2.36600 | 35945 ft | 490 kts | 107° |
| 2026-05-06 19:12 | 40.00913 | -2.27954 | 35946 ft | 490 kts | 107° |
| 2026-05-06 19:12 | 39.98956 | -2.19450 | 35953 ft | 488 kts | 113° |
| 2026-05-06 19:13 | 39.96274 | -2.11327 | 35954 ft | 486 kts | 120° |
| 2026-05-06 19:13 | 39.93049 | -2.03599 | 35956 ft | 485 kts | 122° |
| 2026-05-06 19:14 | 39.89775 | -1.95919 | 35954 ft | 485 kts | 122° |
| 2026-05-06 19:14 | 39.86500 | -1.88230 | 35954 ft | 485 kts | 122° |
| 2026-05-06 19:15 | 39.83227 | -1.80550 | 35956 ft | 485 kts | 122° |
| 2026-05-06 19:15 | 39.80501 | -1.74169 | 35961 ft | 485 kts | 122° |
| 2026-05-06 19:16 | 39.77219 | -1.66503 | 35963 ft | 485 kts | 122° |
| 2026-05-06 19:16 | 39.73397 | -1.57603 | 35964 ft | 485 kts | 122° |
| 2026-05-06 19:17 | 39.70633 | -1.51179 | 35964 ft | 485 kts | 122° |
| 2026-05-06 19:17 | 39.67354 | -1.43579 | 35964 ft | 485 kts | 123° |
| 2026-05-06 19:18 | 39.64047 | -1.35937 | 35963 ft | 485 kts | 123° |
| 2026-05-06 19:18 | 39.60737 | -1.28308 | 35963 ft | 485 kts | 123° |
| 2026-05-06 19:19 | 39.57419 | -1.20682 | 35970 ft | 485 kts | 123° |
| 2026-05-06 19:19 | 39.54099 | -1.13071 | 35972 ft | 485 kts | 123° |
| 2026-05-06 19:20 | 39.50773 | -1.05464 | 35973 ft | 485 kts | 123° |
| 2026-05-06 19:20 | 39.47441 | -0.97871 | 35972 ft | 485 kts | 123° |
| 2026-05-06 19:21 | 39.44102 | -0.90276 | 35973 ft | 485 kts | 123° |
| 2026-05-06 19:21 | 39.40770 | -0.82668 | 35971 ft | 485 kts | 123° |
| 2026-05-06 19:22 | 39.37424 | -0.75084 | 35973 ft | 485 kts | 123° |
| 2026-05-06 19:22 | 39.34067 | -0.67512 | 35973 ft | 485 kts | 123° |
| 2026-05-06 19:23 | 39.30761 | -0.59893 | 35971 ft | 486 kts | 120° |
| 2026-05-06 19:23 | 39.27997 | -0.51887 | 35971 ft | 489 kts | 114° |
| 2026-05-06 19:24 | 39.25936 | -0.43482 | 35973 ft | 491 kts | 108° |
| 2026-05-06 19:24 | 39.24169 | -0.34956 | 35973 ft | 491 kts | 108° |
| 2026-05-06 19:25 | 39.22408 | -0.26488 | 35973 ft | 491 kts | 108° |
| 2026-05-06 19:25 | 39.20609 | -0.17917 | 35973 ft | 491 kts | 108° |
| 2026-05-06 19:26 | 39.18812 | -0.09405 | 35973 ft | 491 kts | 108° |
| 2026-05-06 19:26 | 39.17010 | -0.00904 | 35973 ft | 491 kts | 108° |
| 2026-05-06 19:27 | 39.15198 | 0.07590 | 35965 ft | 492 kts | 108° |
| 2026-05-06 19:27 | 39.13388 | 0.16061 | 35964 ft | 493 kts | 108° |
| 2026-05-06 19:28 | 39.11562 | 0.24582 | 35964 ft | 493 kts | 108° |
| 2026-05-06 19:28 | 39.09728 | 0.33097 | 35964 ft | 493 kts | 108° |
| 2026-05-06 19:29 | 39.07887 | 0.41604 | 35964 ft | 493 kts | 108° |
| 2026-05-06 19:29 | 39.06041 | 0.50102 | 35959 ft | 492 kts | 108° |
| 2026-05-06 19:30 | 39.04189 | 0.58602 | 35955 ft | 492 kts | 108° |
| 2026-05-06 19:30 | 39.02329 | 0.67094 | 35955 ft | 492 kts | 108° |
| 2026-05-06 19:31 | 39.00463 | 0.75583 | 35955 ft | 492 kts | 108° |
| 2026-05-06 19:31 | 38.97652 | 0.88300 | 35955 ft | 492 kts | 108° |
| 2026-05-06 19:32 | 38.95771 | 0.96771 | 35955 ft | 492 kts | 108° |
| 2026-05-06 19:32 | 38.93888 | 1.05237 | 35955 ft | 492 kts | 108° |
| 2026-05-06 19:33 | 38.91998 | 1.13698 | 35955 ft | 492 kts | 108° |
| 2026-05-06 19:33 | 38.90102 | 1.22153 | 35954 ft | 492 kts | 108° |
| 2026-05-06 19:34 | 38.88213 | 1.30542 | 35952 ft | 492 kts | 109° |
| 2026-05-06 19:34 | 38.86282 | 1.38977 | 35946 ft | 491 kts | 110° |
| 2026-05-06 19:35 | 38.84143 | 1.47313 | 35946 ft | 491 kts | 111° |
| 2026-05-06 19:35 | 38.81992 | 1.55635 | 35951 ft | 491 kts | 111° |
| 2026-05-06 19:36 | 38.79865 | 1.63960 | 35954 ft | 491 kts | 110° |
| 2026-05-06 19:36 | 38.77732 | 1.72291 | 35954 ft | 491 kts | 111° |
| 2026-05-06 19:37 | 38.75594 | 1.80601 | 35955 ft | 491 kts | 111° |
| 2026-05-06 19:37 | 38.73447 | 1.88919 | 35955 ft | 491 kts | 111° |
| 2026-05-06 19:38 | 38.71296 | 1.97220 | 35955 ft | 490 kts | 111° |
| 2026-05-06 19:38 | 38.69140 | 2.05512 | 35955 ft | 490 kts | 111° |
| 2026-05-06 19:39 | 38.66957 | 2.13792 | 35953 ft | 490 kts | 112° |
| 2026-05-06 19:39 | 38.64292 | 2.21806 | 35955 ft | 488 kts | 118° |
| 2026-05-06 19:40 | 38.61374 | 2.29658 | 35955 ft | 488 kts | 118° |
| 2026-05-06 19:40 | 38.58455 | 2.37494 | 35955 ft | 488 kts | 118° |
| 2026-05-06 19:41 | 38.55533 | 2.45337 | 35955 ft | 488 kts | 118° |
| 2026-05-06 19:41 | 38.52607 | 2.53174 | 35955 ft | 488 kts | 118° |
| 2026-05-06 19:42 | 38.49681 | 2.60999 | 35955 ft | 488 kts | 118° |
| 2026-05-06 19:42 | 38.46746 | 2.68825 | 35955 ft | 488 kts | 118° |
| 2026-05-06 19:43 | 38.43826 | 2.76590 | 35961 ft | 488 kts | 118° |
| 2026-05-06 19:43 | 38.40875 | 2.84413 | 35963 ft | 488 kts | 118° |
| 2026-05-06 19:44 | 38.37926 | 2.92225 | 35964 ft | 488 kts | 118° |
| 2026-05-06 19:44 | 38.34969 | 3.00040 | 35964 ft | 488 kts | 118° |
| 2026-05-06 19:45 | 38.32010 | 3.07835 | 35963 ft | 488 kts | 118° |
| 2026-05-06 19:45 | 38.29135 | 3.15693 | 35963 ft | 490 kts | 115° |
| 2026-05-06 19:46 | 38.26707 | 3.23835 | 35964 ft | 491 kts | 113° |
| 2026-05-06 19:46 | 38.24332 | 3.31992 | 35964 ft | 491 kts | 113° |
| 2026-05-06 19:47 | 38.21942 | 3.40142 | 35964 ft | 491 kts | 113° |
| 2026-05-06 19:47 | 38.19501 | 3.48207 | 35964 ft | 491 kts | 114° |
| 2026-05-06 19:48 | 38.16975 | 3.56280 | 35964 ft | 491 kts | 114° |
| 2026-05-06 19:48 | 38.14448 | 3.64341 | 35964 ft | 491 kts | 114° |
| 2026-05-06 19:49 | 38.11919 | 3.72411 | 35964 ft | 491 kts | 114° |
| 2026-05-06 19:49 | 38.09386 | 3.80478 | 35964 ft | 491 kts | 114° |
| 2026-05-06 19:50 | 38.06847 | 3.88540 | 35964 ft | 491 kts | 114° |
| 2026-05-06 19:50 | 38.04304 | 3.96597 | 35964 ft | 491 kts | 114° |
| 2026-05-06 19:51 | 38.01757 | 4.04643 | 35964 ft | 491 kts | 114° |
| 2026-05-06 19:51 | 37.99203 | 4.12686 | 35964 ft | 491 kts | 114° |
| 2026-05-06 19:52 | 37.96644 | 4.20722 | 35964 ft | 491 kts | 114° |
| 2026-05-06 19:52 | 37.94077 | 4.28757 | 35957 ft | 491 kts | 115° |
| 2026-05-06 19:53 | 37.91504 | 4.36792 | 35955 ft | 492 kts | 115° |
| 2026-05-06 19:53 | 37.88923 | 4.44830 | 35954 ft | 492 kts | 115° |
| 2026-05-06 19:54 | 37.86334 | 4.52872 | 35954 ft | 493 kts | 115° |
| 2026-05-06 19:54 | 37.83732 | 4.60926 | 35970 ft | 497 kts | 115° |
| 2026-05-06 19:55 | 37.82416 | 4.64989 | 36171 ft | 499 kts | 115° |
| 2026-05-06 19:55 | 37.81100 | 4.69048 | 36488 ft | 498 kts | 115° |
| 2026-05-06 19:55 | 37.79802 | 4.73048 | 36776 ft | 498 kts | 115° |
| 2026-05-06 19:55 | 37.78484 | 4.77104 | 36950 ft | 498 kts | 115° |
| 2026-05-06 19:56 | 37.75838 | 4.85231 | 36954 ft | 494 kts | 115° |
| 2026-05-06 19:56 | 37.73242 | 4.93176 | 36955 ft | 491 kts | 115° |
| 2026-05-06 19:57 | 37.70635 | 5.01154 | 36954 ft | 492 kts | 115° |
| 2026-05-06 19:57 | 37.68211 | 5.09243 | 36956 ft | 492 kts | 113° |
| 2026-05-06 19:58 | 37.65826 | 5.17357 | 36956 ft | 492 kts | 114° |
| 2026-05-06 19:58 | 37.63420 | 5.25460 | 36956 ft | 492 kts | 114° |
| 2026-05-06 19:59 | 37.61000 | 5.33550 | 36956 ft | 492 kts | 114° |
| 2026-05-06 19:59 | 37.58573 | 5.41633 | 36956 ft | 492 kts | 114° |
| 2026-05-06 20:00 | 37.56136 | 5.49716 | 36956 ft | 493 kts | 114° |
| 2026-05-06 20:00 | 37.53696 | 5.57792 | 36956 ft | 493 kts | 114° |
| 2026-05-06 20:01 | 37.51249 | 5.65864 | 36956 ft | 492 kts | 114° |
| 2026-05-06 20:01 | 37.48797 | 5.73930 | 36956 ft | 492 kts | 114° |
| 2026-05-06 20:02 | 37.46340 | 5.81989 | 36956 ft | 492 kts | 114° |
| 2026-05-06 20:02 | 37.43880 | 5.90034 | 36956 ft | 492 kts | 114° |
| 2026-05-06 20:03 | 37.41831 | 5.96719 | 36956 ft | 492 kts | 114° |
| 2026-05-06 20:03 | 37.38956 | 6.06068 | 36956 ft | 493 kts | 114° |
| 2026-05-06 20:04 | 37.36472 | 6.14122 | 36956 ft | 493 kts | 114° |
| 2026-05-06 20:04 | 37.34388 | 6.20864 | 36956 ft | 494 kts | 114° |
| 2026-05-06 20:05 | 37.31892 | 6.28916 | 36956 ft | 494 kts | 114° |
| 2026-05-06 20:05 | 37.29387 | 6.36974 | 36956 ft | 494 kts | 115° |
| 2026-05-06 20:06 | 37.26877 | 6.45027 | 36956 ft | 495 kts | 115° |
| 2026-05-06 20:06 | 37.24357 | 6.53083 | 36956 ft | 495 kts | 115° |
| 2026-05-06 20:07 | 37.21847 | 6.61090 | 36958 ft | 496 kts | 115° |
| 2026-05-06 20:07 | 37.19312 | 6.69152 | 36954 ft | 496 kts | 115° |
| 2026-05-06 20:08 | 37.16769 | 6.77220 | 36951 ft | 497 kts | 115° |
| 2026-05-06 20:08 | 37.14217 | 6.85285 | 36951 ft | 497 kts | 115° |
| 2026-05-06 20:09 | 37.11657 | 6.93360 | 36947 ft | 498 kts | 115° |
| 2026-05-06 20:09 | 37.09092 | 7.01424 | 36946 ft | 498 kts | 115° |
| 2026-05-06 20:10 | 37.06520 | 7.09490 | 36946 ft | 498 kts | 115° |
| 2026-05-06 20:10 | 37.03940 | 7.17560 | 36945 ft | 498 kts | 115° |
| 2026-05-06 20:11 | 37.01357 | 7.25619 | 36938 ft | 498 kts | 115° |
| 2026-05-06 20:11 | 36.98768 | 7.33664 | 36937 ft | 498 kts | 115° |
| 2026-05-06 20:12 | 36.96170 | 7.41716 | 36937 ft | 499 kts | 115° |
| 2026-05-06 20:12 | 36.93564 | 7.49772 | 36928 ft | 499 kts | 115° |
| 2026-05-06 20:13 | 36.90955 | 7.57823 | 36928 ft | 500 kts | 115° |
| 2026-05-06 20:13 | 36.88331 | 7.65886 | 36934 ft | 500 kts | 115° |
| 2026-05-06 20:14 | 36.85592 | 7.73864 | 36927 ft | 498 kts | 120° |
| 2026-05-06 20:14 | 36.82195 | 7.81299 | 36927 ft | 494 kts | 128° |
| 2026-05-06 20:15 | 36.78066 | 7.88108 | 36929 ft | 489 kts | 136° |
| 2026-05-06 20:15 | 36.73413 | 7.94275 | 36929 ft | 487 kts | 139° |
| 2026-05-06 20:16 | 36.68694 | 8.00351 | 36915 ft | 488 kts | 139° |
| 2026-05-06 20:16 | 36.63969 | 8.06451 | 36929 ft | 490 kts | 139° |
| 2026-05-06 20:17 | 36.59237 | 8.12569 | 36929 ft | 490 kts | 139° |
| 2026-05-06 20:17 | 36.54500 | 8.18682 | 36927 ft | 490 kts | 139° |
| 2026-05-06 20:18 | 36.49759 | 8.24787 | 36931 ft | 490 kts | 139° |
| 2026-05-06 20:18 | 36.45159 | 8.31075 | 36933 ft | 495 kts | 132° |
| 2026-05-06 20:19 | 36.41450 | 8.38361 | 36936 ft | 503 kts | 120° |
| 2026-05-06 20:19 | 36.38942 | 8.46509 | 36944 ft | 508 kts | 107° |
| 2026-05-06 20:20 | 36.37487 | 8.55119 | 36946 ft | 509 kts | 103° |
| 2026-05-06 20:20 | 36.36184 | 8.63708 | 36947 ft | 509 kts | 103° |
| 2026-05-06 20:21 | 36.34828 | 8.72392 | 36947 ft | 508 kts | 103° |
| 2026-05-06 20:21 | 36.33464 | 8.80944 | 36946 ft | 508 kts | 103° |
| 2026-05-06 20:22 | 36.32078 | 8.89552 | 36947 ft | 508 kts | 103° |
| 2026-05-06 20:22 | 36.30689 | 8.98149 | 36945 ft | 507 kts | 103° |
| 2026-05-06 20:23 | 36.29294 | 9.06729 | 36945 ft | 508 kts | 103° |
| 2026-05-06 20:23 | 36.27892 | 9.15323 | 36947 ft | 508 kts | 103° |
| 2026-05-06 20:24 | 36.26484 | 9.23910 | 36946 ft | 508 kts | 103° |
| 2026-05-06 20:24 | 36.25099 | 9.32517 | 36946 ft | 509 kts | 101° |
| 2026-05-06 20:25 | 36.24047 | 9.41205 | 36940 ft | 510 kts | 99° |
| 2026-05-06 20:25 | 36.23033 | 9.49916 | 36937 ft | 510 kts | 99° |
| 2026-05-06 20:26 | 36.22006 | 9.58623 | 36937 ft | 511 kts | 99° |
| 2026-05-06 20:26 | 36.20966 | 9.67339 | 36933 ft | 511 kts | 99° |
| 2026-05-06 20:27 | 36.19917 | 9.76066 | 36920 ft | 511 kts | 99° |
| 2026-05-06 20:27 | 36.18860 | 9.84790 | 36928 ft | 512 kts | 99° |
| 2026-05-06 20:28 | 36.17797 | 9.93521 | 36929 ft | 512 kts | 99° |
| 2026-05-06 20:28 | 36.16726 | 10.02260 | 36912 ft | 512 kts | 100° |
| 2026-05-06 20:29 | 36.15605 | 10.10977 | 36910 ft | 512 kts | 102° |
| 2026-05-06 20:29 | 36.13865 | 10.19439 | 36900 ft | 510 kts | 110° |
| 2026-05-06 20:30 | 36.10502 | 10.31936 | 36897 ft | 509 kts | 111° |
| 2026-05-06 20:31 | 36.08508 | 10.40353 | 36903 ft | 510 kts | 104° |
| 2026-05-06 20:31 | 36.07321 | 10.49019 | 36904 ft | 511 kts | 96° |
| 2026-05-06 20:32 | 36.06927 | 10.57793 | 36905 ft | 511 kts | 92° |
| 2026-05-06 20:32 | 36.06713 | 10.66579 | 36904 ft | 510 kts | 92° |
| 2026-05-06 20:33 | 36.06477 | 10.75350 | 36899 ft | 509 kts | 92° |
| 2026-05-06 20:33 | 36.06219 | 10.84103 | 36897 ft | 508 kts | 92° |
| 2026-05-06 20:34 | 36.05952 | 10.92848 | 36900 ft | 508 kts | 92° |
| 2026-05-06 20:34 | 36.05678 | 11.01573 | 36897 ft | 508 kts | 92° |
| 2026-05-06 20:35 | 36.05400 | 11.10302 | 36903 ft | 507 kts | 92° |
| 2026-05-06 20:35 | 36.05113 | 11.19022 | 36897 ft | 507 kts | 92° |
| 2026-05-06 20:36 | 36.04822 | 11.27682 | 36895 ft | 507 kts | 92° |
| 2026-05-06 20:36 | 36.04524 | 11.36404 | 36900 ft | 507 kts | 92° |
| 2026-05-06 20:37 | 36.04206 | 11.45125 | 36901 ft | 507 kts | 94° |
| 2026-05-06 20:37 | 36.03313 | 11.53783 | 36897 ft | 507 kts | 102° |
| 2026-05-06 20:38 | 36.01740 | 11.62296 | 36891 ft | 507 kts | 104° |
| 2026-05-06 20:38 | 36.00079 | 11.70779 | 36888 ft | 508 kts | 104° |
| 2026-05-06 20:39 | 35.98422 | 11.79273 | 36894 ft | 508 kts | 104° |
| 2026-05-06 20:39 | 35.96768 | 11.87773 | 36884 ft | 509 kts | 104° |
| 2026-05-06 20:40 | 35.95110 | 11.96278 | 36881 ft | 509 kts | 104° |
| 2026-05-06 20:40 | 35.93447 | 12.04773 | 36872 ft | 509 kts | 104° |
| 2026-05-06 20:41 | 35.91775 | 12.13278 | 36864 ft | 509 kts | 104° |
| 2026-05-06 20:41 | 35.90100 | 12.21769 | 36858 ft | 509 kts | 104° |
| 2026-05-06 20:42 | 35.88428 | 12.30204 | 36848 ft | 509 kts | 104° |
| 2026-05-06 20:42 | 35.86741 | 12.38688 | 36844 ft | 509 kts | 104° |
| 2026-05-06 20:43 | 35.85046 | 12.47173 | 36837 ft | 508 kts | 104° |
| 2026-05-06 20:43 | 35.83349 | 12.55642 | 36838 ft | 508 kts | 104° |
| 2026-05-06 20:44 | 35.81647 | 12.64101 | 36834 ft | 508 kts | 105° |
| 2026-05-06 20:44 | 35.79937 | 12.72565 | 36824 ft | 508 kts | 105° |
| 2026-05-06 20:45 | 35.78224 | 12.81008 | 36832 ft | 507 kts | 105° |
| 2026-05-06 20:45 | 35.76506 | 12.89442 | 36829 ft | 507 kts | 105° |
| 2026-05-06 20:46 | 35.74782 | 12.97879 | 36830 ft | 507 kts | 105° |
| 2026-05-06 20:46 | 35.73054 | 13.06301 | 36834 ft | 507 kts | 105° |
| 2026-05-06 20:47 | 35.71322 | 13.14712 | 36842 ft | 506 kts | 105° |
| 2026-05-06 20:47 | 35.69582 | 13.23124 | 36843 ft | 506 kts | 105° |
| 2026-05-06 20:48 | 35.67839 | 13.31527 | 36850 ft | 506 kts | 105° |
| 2026-05-06 20:48 | 35.66101 | 13.39873 | 36859 ft | 506 kts | 105° |
| 2026-05-06 20:49 | 35.64348 | 13.48259 | 36870 ft | 506 kts | 105° |
| 2026-05-06 20:49 | 35.62589 | 13.56640 | 36881 ft | 505 kts | 105° |
| 2026-05-06 20:50 | 35.60822 | 13.65017 | 36888 ft | 505 kts | 105° |
| 2026-05-06 20:50 | 35.59053 | 13.73382 | 36902 ft | 505 kts | 105° |
| 2026-05-06 20:51 | 35.57278 | 13.81744 | 36905 ft | 505 kts | 105° |
| 2026-05-06 20:51 | 35.55496 | 13.90113 | 36908 ft | 505 kts | 105° |
| 2026-05-06 20:52 | 35.53722 | 13.98413 | 36928 ft | 505 kts | 105° |
| 2026-05-06 20:52 | 35.51931 | 14.06756 | 36929 ft | 505 kts | 105° |
| 2026-05-06 20:53 | 35.50134 | 14.15096 | 36932 ft | 505 kts | 105° |
| 2026-05-06 20:53 | 35.48626 | 14.22076 | 36934 ft | 505 kts | 105° |
| 2026-05-06 20:54 | 35.46831 | 14.30354 | 36937 ft | 505 kts | 105° |
| 2026-05-06 20:54 | 35.45020 | 14.38679 | 36938 ft | 504 kts | 105° |
| 2026-05-06 20:55 | 35.43203 | 14.46998 | 36938 ft | 504 kts | 105° |
| 2026-05-06 20:55 | 35.41381 | 14.55311 | 36943 ft | 504 kts | 105° |
| 2026-05-06 20:56 | 35.39554 | 14.63617 | 36946 ft | 504 kts | 105° |
| 2026-05-06 20:56 | 35.37721 | 14.71922 | 36947 ft | 504 kts | 105° |
| 2026-05-06 20:57 | 35.35883 | 14.80214 | 36946 ft | 504 kts | 105° |
| 2026-05-06 20:57 | 35.34041 | 14.88503 | 36947 ft | 504 kts | 105° |
| 2026-05-06 20:58 | 35.32194 | 14.96781 | 36946 ft | 503 kts | 105° |
| 2026-05-06 20:58 | 35.30343 | 15.05050 | 36947 ft | 503 kts | 105° |
| 2026-05-06 20:59 | 35.28488 | 15.13308 | 36953 ft | 503 kts | 105° |
| 2026-05-06 20:59 | 35.26626 | 15.21564 | 36956 ft | 502 kts | 105° |
| 2026-05-06 21:00 | 35.24761 | 15.29810 | 36956 ft | 502 kts | 105° |
| 2026-05-06 21:00 | 35.22891 | 15.38050 | 36956 ft | 502 kts | 106° |
| 2026-05-06 21:01 | 35.21016 | 15.46279 | 36956 ft | 501 kts | 106° |
| 2026-05-06 21:01 | 35.19135 | 15.54505 | 36956 ft | 501 kts | 106° |
| 2026-05-06 21:02 | 35.17250 | 15.62726 | 36956 ft | 501 kts | 106° |
| 2026-05-06 21:02 | 35.15359 | 15.70946 | 36956 ft | 501 kts | 106° |
| 2026-05-06 21:03 | 35.13464 | 15.79153 | 36956 ft | 501 kts | 106° |
| 2026-05-06 21:03 | 35.11565 | 15.87351 | 36956 ft | 501 kts | 106° |
| 2026-05-06 21:04 | 35.09670 | 15.95494 | 36956 ft | 501 kts | 106° |
| 2026-05-06 21:04 | 35.07757 | 16.03690 | 36957 ft | 501 kts | 106° |
| 2026-05-06 21:05 | 35.05845 | 16.11861 | 36956 ft | 499 kts | 106° |
| 2026-05-06 21:05 | 35.03929 | 16.20027 | 36956 ft | 500 kts | 106° |
| 2026-05-06 21:06 | 35.00160 | 16.36006 | 36956 ft | 500 kts | 106° |
| 2026-05-06 21:07 | 34.98239 | 16.44103 | 36956 ft | 500 kts | 106° |
| 2026-05-06 21:07 | 34.96298 | 16.52270 | 36956 ft | 500 kts | 106° |
| 2026-05-06 21:08 | 34.94353 | 16.60419 | 36956 ft | 500 kts | 106° |
| 2026-05-06 21:08 | 34.92402 | 16.68569 | 36956 ft | 500 kts | 106° |
| 2026-05-06 21:09 | 34.90445 | 16.76711 | 36956 ft | 500 kts | 106° |
| 2026-05-06 21:09 | 34.88483 | 16.84847 | 36956 ft | 500 kts | 106° |
| 2026-05-06 21:10 | 34.86517 | 16.92979 | 36956 ft | 499 kts | 106° |
| 2026-05-06 21:10 | 34.84547 | 17.01096 | 36956 ft | 499 kts | 106° |
| 2026-05-06 21:11 | 34.82572 | 17.09211 | 36958 ft | 499 kts | 106° |
| 2026-05-06 21:11 | 34.80591 | 17.17324 | 36964 ft | 499 kts | 106° |
| 2026-05-06 21:12 | 34.78605 | 17.25436 | 36965 ft | 499 kts | 106° |
| 2026-05-06 21:12 | 34.76613 | 17.33541 | 36971 ft | 499 kts | 106° |
| 2026-05-06 21:13 | 34.74616 | 17.41643 | 36974 ft | 500 kts | 106° |
| 2026-05-06 21:13 | 34.72613 | 17.49743 | 36974 ft | 500 kts | 106° |
| 2026-05-06 21:14 | 34.70604 | 17.57844 | 36974 ft | 500 kts | 106° |
| 2026-05-06 21:14 | 34.68586 | 17.65956 | 36974 ft | 500 kts | 106° |
| 2026-05-06 21:15 | 34.66561 | 17.74065 | 36974 ft | 501 kts | 106° |
| 2026-05-06 21:15 | 34.64546 | 17.82114 | 36975 ft | 501 kts | 106° |
| 2026-05-06 21:16 | 34.62510 | 17.90224 | 36980 ft | 502 kts | 107° |
| 2026-05-06 21:16 | 34.60466 | 17.98337 | 36983 ft | 502 kts | 107° |
| 2026-05-06 21:17 | 34.58417 | 18.06440 | 36984 ft | 501 kts | 107° |
| 2026-05-06 21:17 | 34.56367 | 18.14525 | 36984 ft | 501 kts | 107° |
| 2026-05-06 21:18 | 34.54310 | 18.22612 | 36984 ft | 501 kts | 107° |
| 2026-05-06 21:18 | 34.52250 | 18.30685 | 36983 ft | 500 kts | 107° |
| 2026-05-06 21:19 | 34.50187 | 18.38747 | 36983 ft | 500 kts | 107° |
| 2026-05-06 21:19 | 34.48117 | 18.46814 | 36983 ft | 500 kts | 107° |
| 2026-05-06 21:20 | 34.46039 | 18.54886 | 36983 ft | 500 kts | 107° |
| 2026-05-06 21:20 | 34.43958 | 18.62943 | 36983 ft | 500 kts | 107° |
| 2026-05-06 21:21 | 34.41876 | 18.70984 | 36983 ft | 500 kts | 107° |
| 2026-05-06 21:21 | 34.39783 | 18.79036 | 36983 ft | 500 kts | 107° |
| 2026-05-06 21:22 | 34.37685 | 18.87084 | 36983 ft | 500 kts | 107° |
| 2026-05-06 21:22 | 34.35597 | 18.95071 | 36983 ft | 500 kts | 107° |
| 2026-05-06 21:23 | 34.33392 | 19.03081 | 36983 ft | 500 kts | 111° |
| 2026-05-06 21:23 | 34.30564 | 19.10781 | 36983 ft | 500 kts | 116° |
| 2026-05-06 21:24 | 34.27505 | 19.18370 | 36983 ft | 500 kts | 116° |
| 2026-05-06 21:24 | 34.24454 | 19.25939 | 36983 ft | 500 kts | 116° |
| 2026-05-06 21:25 | 34.21412 | 19.33506 | 36983 ft | 500 kts | 116° |
| 2026-05-06 21:25 | 34.18364 | 19.41084 | 36983 ft | 500 kts | 116° |
| 2026-05-06 21:26 | 34.15313 | 19.48656 | 36983 ft | 500 kts | 116° |
| 2026-05-06 21:26 | 34.12257 | 19.56224 | 36983 ft | 500 kts | 116° |
| 2026-05-06 21:27 | 34.09198 | 19.63781 | 36983 ft | 500 kts | 116° |
| 2026-05-06 21:27 | 34.06139 | 19.71323 | 36983 ft | 500 kts | 116° |
| 2026-05-06 21:28 | 34.03056 | 19.78907 | 36983 ft | 500 kts | 116° |